createdAt,value
2019-05-28T00:00:40.624Z,97672.69
2019-05-28T00:01:43.895Z,97671.77
2019-05-28T00:02:46.660Z,97673.09
2019-05-28T00:03:49.196Z,97668.25
2019-05-28T00:04:52.912Z,97672.02
2019-05-28T00:05:55.196Z,97663.44
2019-05-28T00:06:57.787Z,97666.41
2019-05-28T00:08:00.774Z,97666.46
2019-05-28T00:09:06.660Z,97658.28
2019-05-28T00:10:11.487Z,97663.59
2019-05-28T00:11:13.977Z,97660.20
2019-05-28T00:12:16.414Z,97661.95
2019-05-28T00:13:18.808Z,97654.80
2019-05-28T00:14:21.214Z,97659.81
2019-05-28T00:15:23.888Z,97657.52
2019-05-28T00:16:26.451Z,97659.38
2019-05-28T00:17:29.022Z,97655.88
2019-05-28T00:18:30.865Z,97659.09
2019-05-28T00:19:34.720Z,97655.63
2019-05-28T00:20:38.315Z,97653.75
2019-05-28T00:21:40.784Z,97654.77
2019-05-28T00:22:43.512Z,97653.69
2019-05-28T00:23:45.914Z,97652.55
2019-05-28T00:24:48.823Z,97652.61
2019-05-28T00:25:51.319Z,97652.55
2019-05-28T00:26:54.419Z,97654.45
2019-05-28T00:27:57.150Z,97649.67
2019-05-28T00:28:59.897Z,97647.36
2019-05-28T00:30:18.629Z,97645.63
2019-05-28T00:31:09.740Z,97647.08
2019-05-28T00:32:12.195Z,97646.84
2019-05-28T00:33:14.875Z,97646.95
2019-05-28T00:34:18.150Z,97640.43
2019-05-28T00:35:21.216Z,97642.87
2019-05-28T00:36:24.145Z,97644.07
2019-05-28T00:37:26.465Z,97634.58
2019-05-28T00:38:29.439Z,97637.84
2019-05-28T00:39:32.583Z,97636.39
2019-05-28T00:40:35.155Z,97630.23
2019-05-28T00:41:37.885Z,97633.25
2019-05-28T00:42:40.654Z,97634.12
2019-05-28T00:43:44.295Z,97622.17
2019-05-28T00:44:47.998Z,97633.39
2019-05-28T00:45:50.711Z,97633.63
2019-05-28T00:46:52.842Z,97630.55
2019-05-28T00:47:55.245Z,97631.23
2019-05-28T00:48:57.805Z,97633.94
2019-05-28T00:50:00.299Z,97629.29
2019-05-28T00:51:04.721Z,97624.22
2019-05-28T00:52:06.742Z,97622.47
2019-05-28T00:53:09.889Z,97631.70
2019-05-28T00:54:12.760Z,97624.39
2019-05-28T00:55:15.473Z,97628.27
2019-05-28T00:56:19.026Z,97626.62
2019-05-28T00:57:22.777Z,97630.91
2019-05-28T00:58:26.139Z,97629.69
2019-05-28T00:59:29.909Z,97630.85
2019-05-28T01:00:44.356Z,97624.09
2019-05-28T01:01:46.495Z,97629.35
2019-05-28T01:02:49.178Z,97624.27
2019-05-28T01:03:51.500Z,97625.61
2019-05-28T01:04:54.205Z,97620.95
2019-05-28T01:05:57.039Z,97619.22
2019-05-28T01:06:59.391Z,97619.52
2019-05-28T01:08:01.681Z,97616.19
2019-05-28T01:09:06.720Z,97620.19
2019-05-28T01:10:09.451Z,97624.09
2019-05-28T01:11:11.878Z,97620.70
2019-05-28T01:12:15.036Z,97626.50
2019-05-28T01:13:17.512Z,97624.83
2019-05-28T01:14:19.870Z,97620.00
2019-05-28T01:15:22.569Z,97621.44
2019-05-28T01:16:25.392Z,97619.50
2019-05-28T01:17:28.236Z,97621.63
2019-05-28T01:18:30.518Z,97617.75
2019-05-28T01:19:33.484Z,97614.45
2019-05-28T01:20:35.865Z,97615.42
2019-05-28T01:21:38.141Z,97611.02
2019-05-28T01:22:40.436Z,97610.45
2019-05-28T01:23:42.858Z,97610.45
2019-05-28T01:24:45.626Z,97616.80
2019-05-28T01:25:51.389Z,97615.09
2019-05-28T01:26:54.046Z,97608.30
2019-05-28T01:27:57.054Z,97611.56
2019-05-28T01:29:00.590Z,97604.31
2019-05-28T01:30:06.509Z,97604.62
2019-05-28T01:31:09.533Z,97610.05
2019-05-28T01:32:12.448Z,97604.86
2019-05-28T01:33:14.810Z,97601.19
2019-05-28T01:34:16.588Z,97599.25
2019-05-28T01:35:19.182Z,97596.83
2019-05-28T01:36:21.831Z,97603.70
2019-05-28T01:37:23.903Z,97604.02
2019-05-28T01:38:26.398Z,97592.63
2019-05-28T01:39:29.902Z,97590.50
2019-05-28T01:40:31.924Z,97584.77
2019-05-28T01:41:35.598Z,97587.49
2019-05-28T01:42:37.420Z,97587.14
2019-05-28T01:43:39.730Z,97587.78
2019-05-28T01:44:42.368Z,97587.85
2019-05-28T01:45:44.366Z,97583.20
2019-05-28T01:46:47.216Z,97586.35
2019-05-28T01:47:49.830Z,97583.33
2019-05-28T01:48:52.029Z,97581.89
2019-05-28T01:49:56.541Z,97587.00
2019-05-28T01:50:59.035Z,97583.27
2019-05-28T01:52:01.756Z,97590.20
2019-05-28T01:53:04.154Z,97586.90
2019-05-28T01:54:07.004Z,97584.30
2019-05-28T01:55:09.735Z,97589.60
2019-05-28T01:56:12.271Z,97587.02
2019-05-28T01:57:14.552Z,97585.08
2019-05-28T01:58:16.666Z,97587.31
2019-05-28T01:59:18.967Z,97585.73
2019-05-28T02:00:22.345Z,97586.52
2019-05-28T02:01:24.955Z,97584.83
2019-05-28T02:02:27.638Z,97588.52
2019-05-28T02:03:29.788Z,97586.09
2019-05-28T02:04:32.271Z,97585.26
2019-05-28T02:05:35.136Z,97583.70
2019-05-28T02:06:37.715Z,97583.63
2019-05-28T02:07:40.655Z,97586.16
2019-05-28T02:08:43.051Z,97580.81
2019-05-28T02:09:44.739Z,97581.70
2019-05-28T02:10:47.205Z,97579.72
2019-05-28T02:11:49.662Z,97580.55
2019-05-28T02:12:52.468Z,97573.09
2019-05-28T02:13:55.203Z,97574.89
2019-05-28T02:14:57.965Z,97570.42
2019-05-28T02:16:01.703Z,97574.59
2019-05-28T02:17:04.226Z,97577.89
2019-05-28T02:18:06.968Z,97577.23
2019-05-28T02:19:09.063Z,97577.59
2019-05-28T02:20:12.512Z,97576.41
2019-05-28T02:21:15.049Z,97578.32
2019-05-28T02:22:20.075Z,97574.11
2019-05-28T02:23:22.501Z,97572.29
2019-05-28T02:24:25.528Z,97563.14
2019-05-28T02:25:28.132Z,97562.53
2019-05-28T02:26:30.408Z,97552.65
2019-05-28T02:27:32.221Z,97547.41
2019-05-28T02:28:34.510Z,97547.11
2019-05-28T02:29:37.356Z,97551.19
2019-05-28T02:30:39.625Z,97545.34
2019-05-28T02:31:42.287Z,97546.49
2019-05-28T02:32:44.890Z,97548.53
2019-05-28T02:33:47.652Z,97540.88
2019-05-28T02:34:52.465Z,97539.91
2019-05-28T02:35:55.289Z,97541.84
2019-05-28T02:36:57.936Z,97537.75
2019-05-28T02:38:00.228Z,97539.01
2019-05-28T02:39:06.060Z,97538.95
2019-05-28T02:40:09.266Z,97538.70
2019-05-28T02:41:11.672Z,97536.19
2019-05-28T02:42:14.125Z,97538.47
2019-05-28T02:43:16.899Z,97529.86
2019-05-28T02:44:19.814Z,97537.04
2019-05-28T02:45:22.019Z,97531.13
2019-05-28T02:46:24.702Z,97530.95
2019-05-28T02:47:27.088Z,97532.14
2019-05-28T02:48:29.781Z,97535.45
2019-05-28T02:49:33.092Z,97537.45
2019-05-28T02:50:55.684Z,97545.22
2019-05-28T02:51:58.513Z,97543.67
2019-05-28T02:53:01.107Z,97545.77
2019-05-28T02:54:04.209Z,97552.17
2019-05-28T02:55:07.768Z,97545.95
2019-05-28T02:56:13.382Z,97540.47
2019-05-28T02:57:17.738Z,97546.32
2019-05-28T02:58:23.198Z,97543.43
2019-05-28T02:59:27.583Z,97548.85
2019-05-28T03:00:30.303Z,97545.47
2019-05-28T03:01:44.401Z,97544.02
2019-05-28T03:02:47.072Z,97543.89
2019-05-28T03:03:53.583Z,97540.78
2019-05-28T03:04:59.368Z,97547.22
2019-05-28T03:06:05.572Z,97538.84
2019-05-28T03:07:09.262Z,97542.04
2019-05-28T03:08:15.073Z,97541.92
2019-05-28T03:09:19.794Z,97539.25
2019-05-28T03:10:59.779Z,97541.19
2019-05-28T03:11:40.031Z,97541.56
2019-05-28T03:12:42.993Z,97545.54
2019-05-28T03:13:48.005Z,97548.98
2019-05-28T03:14:50.963Z,97547.75
2019-05-28T03:15:57.511Z,97540.70
2019-05-28T03:17:04.769Z,97543.48
2019-05-28T03:18:09.830Z,97541.77
2019-05-28T03:19:13.123Z,97545.94
2019-05-28T03:20:19.853Z,97549.33
2019-05-28T03:21:25.065Z,97556.72
2019-05-28T03:22:30.379Z,97553.73
2019-05-28T03:23:36.427Z,97552.45
2019-05-28T03:24:41.898Z,97556.63
2019-05-28T03:25:44.618Z,97552.95
2019-05-28T03:26:47.569Z,97550.89
2019-05-28T03:27:50.715Z,97554.08
2019-05-28T03:28:54.118Z,97549.62
2019-05-28T03:29:57.173Z,97544.99
2019-05-28T03:30:59.838Z,97549.14
2019-05-28T03:32:08.047Z,97548.53
2019-05-28T03:33:07.938Z,97547.89
2019-05-28T03:34:10.040Z,97543.12
2019-05-28T03:35:13.456Z,97546.98
2019-05-28T03:36:17.675Z,97537.58
2019-05-28T03:37:19.717Z,97540.58
2019-05-28T03:38:24.345Z,97538.70
2019-05-28T03:39:27.940Z,97541.07
2019-05-28T03:40:47.255Z,97535.50
2019-05-28T03:41:49.708Z,97536.30
2019-05-28T03:42:52.268Z,97538.72
2019-05-28T03:43:54.690Z,97536.91
2019-05-28T03:44:57.332Z,97534.91
2019-05-28T03:45:59.952Z,97533.47
2019-05-28T03:47:02.980Z,97534.75
2019-05-28T03:48:05.598Z,97540.70
2019-05-28T03:49:07.344Z,97538.05
2019-05-28T03:50:10.332Z,97537.52
2019-05-28T03:51:13.166Z,97542.83
2019-05-28T03:52:16.214Z,97541.66
2019-05-28T03:53:19.189Z,97539.08
2019-05-28T03:54:22.032Z,97543.36
2019-05-28T03:55:24.499Z,97540.70
2019-05-28T03:56:26.912Z,97540.64
2019-05-28T03:57:29.110Z,97539.86
2019-05-28T03:58:32.726Z,97543.11
2019-05-28T03:59:35.593Z,97538.23
2019-05-28T04:00:38.554Z,97546.54
2019-05-28T04:01:42.231Z,97547.70
2019-05-28T04:02:45.090Z,97543.53
2019-05-28T04:03:47.574Z,97543.05
2019-05-28T04:04:50.144Z,97538.53
2019-05-28T04:05:53.139Z,97543.52
2019-05-28T04:06:55.841Z,97539.80
2019-05-28T04:08:00.994Z,97539.69
2019-05-28T04:09:07.094Z,97538.34
2019-05-28T04:10:09.623Z,97537.81
2019-05-28T04:11:12.456Z,97540.17
2019-05-28T04:12:14.570Z,97539.16
2019-05-28T04:13:17.743Z,97536.80
2019-05-28T04:14:20.630Z,97535.34
2019-05-28T04:15:22.603Z,97542.20
2019-05-28T04:16:25.080Z,97539.25
2019-05-28T04:17:27.672Z,97539.58
2019-05-28T04:18:30.100Z,97540.47
2019-05-28T04:19:33.141Z,97539.37
2019-05-28T04:20:35.838Z,97546.96
2019-05-28T04:21:38.115Z,97542.67
2019-05-28T04:22:41.369Z,97537.67
2019-05-28T04:23:43.651Z,97540.25
2019-05-28T04:24:46.209Z,97537.91
2019-05-28T04:25:48.587Z,97535.64
2019-05-28T04:26:52.731Z,97541.02
2019-05-28T04:27:54.435Z,97538.72
2019-05-28T04:28:57.818Z,97534.00
2019-05-28T04:30:00.241Z,97539.31
2019-05-28T04:31:02.397Z,97538.28
2019-05-28T04:32:04.970Z,97537.38
2019-05-28T04:33:07.019Z,97533.67
2019-05-28T04:34:09.397Z,97536.09
2019-05-28T04:35:13.526Z,97534.36
2019-05-28T04:36:16.452Z,97530.79
2019-05-28T04:37:18.564Z,97526.43
2019-05-28T04:38:21.311Z,97533.03
2019-05-28T04:39:24.441Z,97527.27
2019-05-28T04:40:27.959Z,97526.31
2019-05-28T04:41:30.467Z,97528.31
2019-05-28T04:42:33.067Z,97530.36
2019-05-28T04:43:37.172Z,97522.06
2019-05-28T04:44:39.770Z,97530.36
2019-05-28T04:45:48.994Z,97522.78
2019-05-28T04:46:51.806Z,97528.41
2019-05-28T04:47:54.559Z,97531.16
2019-05-28T04:48:56.447Z,97528.70
2019-05-28T04:49:58.935Z,97533.73
2019-05-28T04:51:01.992Z,97533.13
2019-05-28T04:52:04.141Z,97529.72
2019-05-28T04:53:06.527Z,97530.66
2019-05-28T04:54:09.036Z,97527.75
2019-05-28T04:55:12.734Z,97531.24
2019-05-28T04:56:15.268Z,97531.24
2019-05-28T04:57:18.007Z,97530.30
2019-05-28T04:58:21.400Z,97534.28
2019-05-28T04:59:24.233Z,97537.98
2019-05-28T05:00:27.066Z,97529.53
2019-05-28T05:01:30.255Z,97530.52
2019-05-28T05:02:32.727Z,97533.81
2019-05-28T05:03:36.143Z,97538.10
2019-05-28T05:04:38.477Z,97529.64
2019-05-28T05:05:41.090Z,97531.91
2019-05-28T05:06:43.926Z,97524.48
2019-05-28T05:07:46.299Z,97530.30
2019-05-28T05:08:50.129Z,97525.00
2019-05-28T05:09:52.990Z,97530.24
2019-05-28T05:10:55.620Z,97528.61
2019-05-28T05:11:58.375Z,97522.88
2019-05-28T05:13:00.850Z,97525.34
2019-05-28T05:14:04.104Z,97527.59
2019-05-28T05:15:07.779Z,97523.40
2019-05-28T05:16:10.912Z,97521.66
2019-05-28T05:17:13.771Z,97525.52
2019-05-28T05:18:16.510Z,97521.97
2019-05-28T05:19:18.631Z,97527.70
2019-05-28T05:20:23.646Z,97527.00
2019-05-28T05:21:26.224Z,97532.23
2019-05-28T05:22:28.732Z,97532.34
2019-05-28T05:23:32.215Z,97530.47
2019-05-28T05:24:35.456Z,97529.06
2019-05-28T05:25:38.098Z,97523.34
2019-05-28T05:26:41.309Z,97519.14
2019-05-28T05:27:44.148Z,97518.97
2019-05-28T05:28:47.625Z,97513.39
2019-05-28T05:29:50.093Z,97514.42
2019-05-28T05:30:53.042Z,97509.46
2019-05-28T05:31:55.876Z,97507.76
2019-05-28T05:33:18.281Z,97507.89
2019-05-28T05:34:03.115Z,97502.42
2019-05-28T05:35:06.195Z,97508.00
2019-05-28T05:36:08.489Z,97506.61
2019-05-28T05:37:11.147Z,97499.99
2019-05-28T05:38:14.046Z,97504.00
2019-05-28T05:39:17.297Z,97496.72
2019-05-28T05:40:20.805Z,97495.25
2019-05-28T05:41:23.874Z,97500.73
2019-05-28T05:42:27.442Z,97494.97
2019-05-28T05:43:29.843Z,97492.45
2019-05-28T05:44:32.753Z,97494.07
2019-05-28T05:45:35.153Z,97492.12
2019-05-28T05:46:38.654Z,97490.78
2019-05-28T05:47:41.841Z,97498.98
2019-05-28T05:48:43.791Z,97491.69
2019-05-28T05:49:46.755Z,97486.49
2019-05-28T05:50:49.131Z,97489.05
2019-05-28T05:51:51.585Z,97479.99
2019-05-28T05:52:55.756Z,97481.91
2019-05-28T05:54:00.058Z,97477.53
2019-05-28T05:55:05.321Z,97477.22
2019-05-28T05:56:07.832Z,97474.25
2019-05-28T05:57:10.802Z,97471.46
2019-05-28T05:58:13.933Z,97469.25
2019-05-28T05:59:16.680Z,97463.86
2019-05-28T06:00:20.344Z,97460.41
2019-05-28T06:01:23.034Z,97463.59
2019-05-28T06:02:25.393Z,97456.75
2019-05-28T06:03:39.698Z,97461.02
2019-05-28T06:04:33.949Z,97458.76
2019-05-28T06:05:36.314Z,97464.37
2019-05-28T06:06:38.124Z,97463.28
2019-05-28T06:07:42.115Z,97471.16
2019-05-28T06:08:45.067Z,97468.25
2019-05-28T06:09:47.686Z,97474.39
2019-05-28T06:10:50.969Z,97469.66
2019-05-28T06:11:53.626Z,97478.19
2019-05-28T06:12:56.161Z,97475.35
2019-05-28T06:13:58.558Z,97476.88
2019-05-28T06:15:01.421Z,97480.09
2019-05-28T06:16:05.424Z,97477.48
2019-05-28T06:17:08.623Z,97473.34
2019-05-28T06:18:11.331Z,97473.00
2019-05-28T06:19:14.218Z,97480.80
2019-05-28T06:20:18.412Z,97477.64
2019-05-28T06:21:23.002Z,97473.69
2019-05-28T06:22:25.876Z,97476.07
2019-05-28T06:23:29.141Z,97478.67
2019-05-28T06:24:31.882Z,97473.48
2019-05-28T06:25:34.261Z,97472.23
2019-05-28T06:26:38.412Z,97474.97
2019-05-28T06:27:41.444Z,97472.88
2019-05-28T06:28:44.136Z,97470.61
2019-05-28T06:29:46.829Z,97472.70
2019-05-28T06:30:50.882Z,97467.35
2019-05-28T06:31:54.335Z,97468.41
2019-05-28T06:32:57.408Z,97460.32
2019-05-28T06:34:01.958Z,97460.03
2019-05-28T06:35:05.656Z,97464.84
2019-05-28T06:36:08.356Z,97457.58
2019-05-28T06:37:12.750Z,97460.61
2019-05-28T06:38:16.023Z,97460.67
2019-05-28T06:39:18.805Z,97457.65
2019-05-28T06:40:21.325Z,97453.43
2019-05-28T06:41:24.503Z,97451.41
2019-05-28T06:42:27.986Z,97442.53
2019-05-28T06:43:31.137Z,97449.20
2019-05-28T06:44:34.123Z,97450.90
2019-05-28T06:45:36.510Z,97440.97
2019-05-28T06:46:38.934Z,97440.29
2019-05-28T06:47:45.029Z,97450.47
2019-05-28T06:48:49.399Z,97453.28
2019-05-28T06:49:53.412Z,97447.72
2019-05-28T06:50:56.451Z,97445.92
2019-05-28T06:52:00.146Z,97452.45
2019-05-28T06:53:03.183Z,97450.61
2019-05-28T06:54:06.041Z,97448.44
2019-05-28T06:55:09.358Z,97452.05
2019-05-28T06:56:14.491Z,97454.07
2019-05-28T06:57:22.881Z,97451.27
2019-05-28T06:58:37.846Z,97454.61
2019-05-28T06:59:29.726Z,97455.13
2019-05-28T07:00:32.343Z,97451.70
2019-05-28T07:01:34.995Z,97448.08
2019-05-28T07:02:38.669Z,97448.81
2019-05-28T07:03:40.525Z,97447.19
2019-05-28T07:04:43.911Z,97447.19
2019-05-28T07:06:05.093Z,97439.90
2019-05-28T07:06:52.117Z,97447.07
2019-05-28T07:07:56.470Z,97444.91
2019-05-28T07:09:00.545Z,97446.97
2019-05-28T07:10:08.747Z,97442.95
2019-05-28T07:11:13.230Z,97447.03
2019-05-28T07:12:18.308Z,97442.84
2019-05-28T07:13:21.281Z,97446.05
2019-05-28T07:14:26.089Z,97440.45
2019-05-28T07:15:28.205Z,97436.92
2019-05-28T07:16:32.434Z,97437.53
2019-05-28T07:17:35.161Z,97432.98
2019-05-28T07:18:37.956Z,97435.86
2019-05-28T07:19:41.012Z,97432.28
2019-05-28T07:20:44.319Z,97428.41
2019-05-28T07:21:46.388Z,97427.77
2019-05-28T07:22:49.379Z,97423.04
2019-05-28T07:23:51.805Z,97429.22
2019-05-28T07:24:54.898Z,97422.98
2019-05-28T07:25:57.260Z,97427.53
2019-05-28T07:27:00.121Z,97421.52
2019-05-28T07:28:11.052Z,97428.98
2019-05-28T07:29:07.037Z,97427.44
2019-05-28T07:30:10.763Z,97423.92
2019-05-28T07:31:14.130Z,97418.13
2019-05-28T07:32:17.122Z,97419.03
2019-05-28T07:33:19.921Z,97424.91
2019-05-28T07:34:30.715Z,97424.91
2019-05-28T07:35:26.834Z,97420.23
2019-05-28T07:36:30.314Z,97422.97
2019-05-28T07:37:33.109Z,97428.38
2019-05-28T07:38:35.407Z,97425.52
2019-05-28T07:39:39.096Z,97419.86
2019-05-28T07:40:43.070Z,97418.05
2019-05-28T07:41:45.518Z,97424.13
2019-05-28T07:42:47.846Z,97418.46
2019-05-28T07:43:50.106Z,97422.72
2019-05-28T07:44:52.478Z,97421.55
2019-05-28T07:45:54.362Z,97415.96
2019-05-28T07:46:57.257Z,97414.82
2019-05-28T07:47:59.938Z,97414.41
2019-05-28T07:49:02.791Z,97415.03
2019-05-28T07:50:06.526Z,97408.02
2019-05-28T07:51:08.562Z,97407.20
2019-05-28T07:52:11.397Z,97408.58
2019-05-28T07:53:14.350Z,97404.58
2019-05-28T07:54:17.040Z,97405.92
2019-05-28T07:55:19.464Z,97404.18
2019-05-28T07:56:22.655Z,97394.87
2019-05-28T07:57:26.442Z,97395.71
2019-05-28T07:58:29.078Z,97397.83
2019-05-28T07:59:31.432Z,97393.09
2019-05-28T08:00:41.531Z,97393.47
2019-05-28T08:01:45.508Z,97389.69
2019-05-28T08:02:52.076Z,97394.98
2019-05-28T08:03:54.213Z,97389.91
2019-05-28T08:04:56.994Z,97390.66
2019-05-28T08:05:59.815Z,97387.86
2019-05-28T08:07:01.750Z,97391.48
2019-05-28T08:08:07.681Z,97387.58
2019-05-28T08:09:10.110Z,97392.89
2019-05-28T08:10:13.263Z,97384.88
2019-05-28T08:11:18.935Z,97388.59
2019-05-28T08:12:22.183Z,97390.22
2019-05-28T08:13:39.616Z,97386.78
2019-05-28T08:14:29.225Z,97387.84
2019-05-28T08:15:31.960Z,97392.93
2019-05-28T08:16:34.657Z,97397.17
2019-05-28T08:17:37.466Z,97388.09
2019-05-28T08:18:39.997Z,97387.52
2019-05-28T08:19:43.468Z,97391.36
2019-05-28T08:20:46.617Z,97386.55
2019-05-28T08:21:48.998Z,97389.80
2019-05-28T08:22:54.592Z,97389.23
2019-05-28T08:23:59.076Z,97386.29
2019-05-28T08:25:04.067Z,97386.51
2019-05-28T08:26:08.926Z,97390.30
2019-05-28T08:27:12.023Z,97387.06
2019-05-28T08:28:19.900Z,97396.88
2019-05-28T08:29:19.052Z,97393.25
2019-05-28T08:30:22.529Z,97391.35
2019-05-28T08:31:25.161Z,97392.48
2019-05-28T08:32:28.128Z,97397.55
2019-05-28T08:33:30.139Z,97388.58
2019-05-28T08:34:34.808Z,97389.28
2019-05-28T08:35:38.056Z,97393.54
2019-05-28T08:36:42.143Z,97386.95
2019-05-28T08:37:46.151Z,97387.45
2019-05-28T08:38:48.978Z,97385.20
2019-05-28T08:39:51.475Z,97377.06
2019-05-28T08:40:54.340Z,97380.67
2019-05-28T08:41:56.834Z,97379.10
2019-05-28T08:42:59.138Z,97382.30
2019-05-28T08:44:01.937Z,97389.77
2019-05-28T08:45:06.218Z,97386.31
2019-05-28T08:46:08.419Z,97386.83
2019-05-28T08:47:10.799Z,97389.19
2019-05-28T08:48:13.718Z,97385.17
2019-05-28T08:49:18.497Z,97390.03
2019-05-28T08:50:33.616Z,97379.73
2019-05-28T08:51:26.198Z,97385.47
2019-05-28T08:52:28.624Z,97387.87
2019-05-28T08:53:31.348Z,97394.88
2019-05-28T08:54:33.698Z,97397.17
2019-05-28T08:55:36.377Z,97393.13
2019-05-28T08:56:38.820Z,97389.66
2019-05-28T08:57:41.291Z,97397.30
2019-05-28T08:58:44.728Z,97397.91
2019-05-28T08:59:47.252Z,97397.36
2019-05-28T09:00:49.092Z,97400.58
2019-05-28T09:01:52.013Z,97402.09
2019-05-28T09:02:54.638Z,97402.89
2019-05-28T09:03:56.790Z,97402.77
2019-05-28T09:04:59.559Z,97401.84
2019-05-28T09:06:02.741Z,97405.62
2019-05-28T09:07:04.816Z,97406.58
2019-05-28T09:08:07.980Z,97402.28
2019-05-28T09:09:14.159Z,97404.77
2019-05-28T09:10:17.254Z,97398.92
2019-05-28T09:11:20.631Z,97400.47
2019-05-28T09:12:24.984Z,97396.81
2019-05-28T09:13:27.695Z,97400.66
2019-05-28T09:14:53.986Z,97398.35
2019-05-28T09:15:34.919Z,97403.52
2019-05-28T09:16:37.522Z,97395.85
2019-05-28T09:17:39.823Z,97395.16
2019-05-28T09:18:42.475Z,97398.53
2019-05-28T09:19:46.410Z,97393.04
2019-05-28T09:20:50.792Z,97394.20
2019-05-28T09:21:54.463Z,97395.37
2019-05-28T09:22:56.748Z,97396.19
2019-05-28T09:23:59.425Z,97401.97
2019-05-28T09:25:05.153Z,97388.97
2019-05-28T09:26:08.924Z,97395.20
2019-05-28T09:27:14.449Z,97398.59
2019-05-28T09:28:29.494Z,97392.89
2019-05-28T09:29:23.693Z,97395.48
2019-05-28T09:30:26.838Z,97397.44
2019-05-28T09:31:30.905Z,97389.45
2019-05-28T09:32:33.666Z,97393.42
2019-05-28T09:33:36.451Z,97391.48
2019-05-28T09:34:38.902Z,97383.49
2019-05-28T09:35:46.769Z,97380.58
2019-05-28T09:36:47.997Z,97379.33
2019-05-28T09:37:50.775Z,97373.36
2019-05-28T09:38:53.121Z,97368.80
2019-05-28T09:39:57.067Z,97372.13
2019-05-28T09:40:59.309Z,97368.46
2019-05-28T09:42:03.946Z,97365.14
2019-05-28T09:43:06.498Z,97359.27
2019-05-28T09:44:09.387Z,97356.82
2019-05-28T09:45:22.306Z,97353.48
2019-05-28T09:46:17.548Z,97356.04
2019-05-28T09:47:21.681Z,97357.47
2019-05-28T09:48:25.281Z,97359.73
2019-05-28T09:49:26.954Z,97351.03
2019-05-28T09:50:31.341Z,97355.06
2019-05-28T09:51:35.141Z,97356.18
2019-05-28T09:52:53.140Z,97357.80
2019-05-28T09:53:42.893Z,97353.30
2019-05-28T09:54:44.857Z,97361.33
2019-05-28T09:55:48.465Z,97359.30
2019-05-28T09:56:50.976Z,97358.75
2019-05-28T09:57:52.855Z,97350.66
2019-05-28T09:58:55.852Z,97350.98
2019-05-28T09:59:58.299Z,97350.39
2019-05-28T10:01:00.282Z,97355.31
2019-05-28T10:02:03.845Z,97358.94
2019-05-28T10:03:07.833Z,97357.55
2019-05-28T10:04:09.626Z,97356.33
2019-05-28T10:05:12.940Z,97350.98
2019-05-28T10:06:18.274Z,97357.60
2019-05-28T10:07:21.329Z,97359.40
2019-05-28T10:08:23.848Z,97362.41
2019-05-28T10:09:28.302Z,97355.94
2019-05-28T10:10:32.126Z,97358.58
2019-05-28T10:11:34.715Z,97360.06
2019-05-28T10:12:37.232Z,97359.01
2019-05-28T10:13:42.005Z,97363.69
2019-05-28T10:14:44.908Z,97360.73
2019-05-28T10:15:46.758Z,97363.33
2019-05-28T10:16:49.235Z,97365.03
2019-05-28T10:17:51.728Z,97359.25
2019-05-28T10:18:54.213Z,97361.45
2019-05-28T10:19:56.546Z,97360.02
2019-05-28T10:21:16.548Z,97358.46
2019-05-28T10:22:04.551Z,97358.86
2019-05-28T10:23:08.537Z,97357.34
2019-05-28T10:24:11.787Z,97360.20
2019-05-28T10:25:16.663Z,97359.31
2019-05-28T10:26:20.511Z,97351.55
2019-05-28T10:27:23.045Z,97350.78
2019-05-28T10:28:26.850Z,97352.56
2019-05-28T10:29:29.681Z,97354.33
2019-05-28T10:30:32.261Z,97357.80
2019-05-28T10:31:34.989Z,97347.50
2019-05-28T10:32:37.998Z,97350.38
2019-05-28T10:33:41.522Z,97344.91
2019-05-28T10:35:02.563Z,97338.23
2019-05-28T10:35:52.190Z,97337.45
2019-05-28T10:36:54.201Z,97339.41
2019-05-28T10:37:56.604Z,97332.73
2019-05-28T10:39:03.543Z,97332.38
2019-05-28T10:40:10.077Z,97327.03
2019-05-28T10:41:12.929Z,97323.72
2019-05-28T10:42:14.645Z,97328.37
2019-05-28T10:43:17.680Z,97326.92
2019-05-28T10:44:21.074Z,97328.48
2019-05-28T10:45:25.929Z,97334.28
2019-05-28T10:46:27.809Z,97326.82
2019-05-28T10:47:31.895Z,97322.40
2019-05-28T10:48:37.704Z,97319.16
2019-05-28T10:49:40.293Z,97320.78
2019-05-28T10:50:42.656Z,97318.87
2019-05-28T10:51:47.161Z,97312.13
2019-05-28T10:52:49.988Z,97309.73
2019-05-28T10:53:52.887Z,97309.31
2019-05-28T10:54:56.133Z,97300.17
2019-05-28T10:55:58.670Z,97299.92
2019-05-28T10:57:01.999Z,97298.78
2019-05-28T10:58:05.814Z,97292.80
2019-05-28T10:59:08.175Z,97291.36
2019-05-28T11:00:12.584Z,97290.62
2019-05-28T11:01:15.147Z,97285.34
2019-05-28T11:02:19.389Z,97285.67
2019-05-28T11:03:22.686Z,97281.27
2019-05-28T11:04:25.394Z,97279.55
2019-05-28T11:05:27.954Z,97275.02
2019-05-28T11:06:30.797Z,97275.25
2019-05-28T11:07:33.564Z,97273.42
2019-05-28T11:08:36.627Z,97265.17
2019-05-28T11:09:40.101Z,97272.91
2019-05-28T11:10:44.295Z,97266.77
2019-05-28T11:11:48.591Z,97262.83
2019-05-28T11:12:50.419Z,97268.00
2019-05-28T11:13:53.802Z,97264.09
2019-05-28T11:14:57.988Z,97265.34
2019-05-28T11:15:59.679Z,97263.22
2019-05-28T11:17:03.557Z,97268.28
2019-05-28T11:18:07.277Z,97268.73
2019-05-28T11:19:10.028Z,97262.05
2019-05-28T11:20:16.477Z,97253.58
2019-05-28T11:21:19.481Z,97254.73
2019-05-28T11:22:21.199Z,97255.69
2019-05-28T11:23:24.745Z,97255.80
2019-05-28T11:24:27.078Z,97254.86
2019-05-28T11:25:30.893Z,97252.18
2019-05-28T11:26:33.360Z,97253.29
2019-05-28T11:27:36.496Z,97258.59
2019-05-28T11:28:43.531Z,97249.28
2019-05-28T11:29:47.650Z,97248.28
2019-05-28T11:30:51.386Z,97241.86
2019-05-28T11:31:55.221Z,97245.56
2019-05-28T11:32:59.655Z,97242.59
2019-05-28T11:34:01.772Z,97241.59
2019-05-28T11:35:06.278Z,97230.84
2019-05-28T11:36:09.051Z,97236.03
2019-05-28T11:37:11.820Z,97238.30
2019-05-28T11:38:14.350Z,97244.59
2019-05-28T11:39:17.250Z,97244.04
2019-05-28T11:40:20.511Z,97237.52
2019-05-28T11:41:40.855Z,97238.56
2019-05-28T11:42:30.084Z,97233.27
2019-05-28T11:43:33.055Z,97239.98
2019-05-28T11:44:36.783Z,97237.22
2019-05-28T11:45:39.010Z,97237.13
2019-05-28T11:46:41.703Z,97235.31
2019-05-28T11:47:50.191Z,97228.91
2019-05-28T11:48:50.665Z,97229.19
2019-05-28T11:49:53.630Z,97226.02
2019-05-28T11:50:58.137Z,97220.11
2019-05-28T11:52:00.595Z,97212.63
2019-05-28T11:53:04.162Z,97219.70
2019-05-28T11:54:06.614Z,97218.59
2019-05-28T11:55:14.902Z,97226.48
2019-05-28T11:56:18.081Z,97225.92
2019-05-28T11:57:24.205Z,97217.80
2019-05-28T11:58:26.514Z,97222.23
2019-05-28T11:59:28.809Z,97218.09
2019-05-28T12:00:31.999Z,97223.89
2019-05-28T12:01:35.500Z,97217.30
2019-05-28T12:02:40.025Z,97220.84
2019-05-28T12:03:42.538Z,97216.46
2019-05-28T12:04:44.909Z,97212.95
2019-05-28T12:05:47.543Z,97211.30
2019-05-28T12:06:50.447Z,97205.15
2019-05-28T12:07:54.258Z,97206.88
2019-05-28T12:08:57.897Z,97210.33
2019-05-28T12:10:02.582Z,97203.45
2019-05-28T12:11:05.756Z,97209.81
2019-05-28T12:12:08.389Z,97211.75
2019-05-28T12:13:12.393Z,97207.42
2019-05-28T12:14:14.960Z,97199.20
2019-05-28T12:15:18.550Z,97200.44
2019-05-28T12:16:23.078Z,97203.98
2019-05-28T12:17:41.713Z,97204.55
2019-05-28T12:18:31.105Z,97203.40
2019-05-28T12:19:33.599Z,97203.17
2019-05-28T12:20:36.405Z,97193.61
2019-05-28T12:21:38.180Z,97197.91
2019-05-28T12:22:41.970Z,97201.59
2019-05-28T12:23:48.870Z,97207.23